Arklow Fame — EIXN — position and weather

sailwx.info

Track history (hours):
 
Tides and Currents Weather Stations Pressure Air Temp Water Temp Dewpoint Dewpoint Depression Visibility Wind Speed Wind Dir Waves Ship Positions

Arklow Fame

Last reported at 2018-Jan-19 01:28 UTC. Time now 2018-Jan-19 06:04 UTC.
Position N 51°13' W 004°22'.

Length 90 m; draft 4 m.

Type: Cargo ship. MMSI: 250000817.

Date/timePositionNaut miles runAvg speedWind from/ knotsBaromVisibWave heightAir tempDewpointWater temp
2018-Jan-19 01:28N 51°13' W 004°22'510.6
2018-Jan-19 01:00N 51°10' W 004°28'510.4
2018-Jan-19 00:30N 51°06' W 004°34'5 9.7
2018-Jan-19 00:00N 51°03' W 004°40'510.0
2018-Jan-18 23:31N 51°00' W 004°46'510.0
2018-Jan-18 23:01N 50°57' W 004°53'4 8.9
2018-Jan-18 22:31N 50°54' W 004°58'5 9.0
2018-Jan-18 22:01N 50°51' W 005°03'5 9.2
2018-Jan-18 21:31N 50°47' W 005°07'5 9.3
2018-Jan-18 21:00N 50°44' W 005°13'5 9.4
2018-Jan-18 20:31N 50°41' W 005°19'5 9.7
2018-Jan-18 20:00N 50°38' W 005°24'5 9.9
2018-Jan-18 19:29N 50°34' W 005°30'510.8
2018-Jan-18 19:00N 50°30' W 005°36'712.7
2018-Jan-18 18:28N 50°26' W 005°43'58 6.2
2018-Jan-18 09:09N 49°54' W 004°28'5 7.8
2018-Jan-18 08:32N 49°55' W 004°21'1 7.3
2018-Jan-18 08:27N 49°55' W 004°20'4 6.5
2018-Jan-18 07:51N 49°56' W 004°15'13 3.4
2018-Jan-18 04:08N 49°58' W 003°55'1 3.2
2018-Jan-18 03:54N 49°58' W 003°55'2 3.4
2018-Jan-18 03:24N 50°00' W 003°54'1 2.4
2018-Jan-18 02:55N 50°01' W 003°53'2 4.1
2018-Jan-18 02:30N 50°00' W 003°50'4 5.3
2018-Jan-18 01:49N 49°59' W 003°45'2 5.3
2018-Jan-18 01:31N 49°58' W 003°43'6 5.4
2018-Jan-18 00:28N 49°55' W 003°35'2 4.3
2018-Jan-18 00:00N 49°55' W 003°32'0 3.5
2018-Jan-17 23:57N 49°55' W 003°32'  
2018-Jan-12 14:57N 49°34' W 000°08'0 0.2
2018-Jan-12 14:30N 49°34' W 000°09'0 0.0
2018-Jan-12 14:00N 49°34' W 000°09'0 0.0
2018-Jan-12 13:30N 49°34' W 000°09'0 0.0
2018-Jan-12 13:00N 49°34' W 000°09'0 0.0
2018-Jan-12 12:27N 49°34' W 000°09'0 0.0
2018-Jan-12 12:00N 49°34' W 000°09'0 0.0
2018-Jan-12 11:30N 49°34' W 000°09'0 0.0
2018-Jan-12 11:00N 49°34' W 000°09'1 1.7
2018-Jan-12 10:31N 49°35' W 000°08'611.1
2018-Jan-12 10:00N 49°40' W 000°04'611.9
2018-Jan-12 09:31N 49°46' W 000°00'611.7
2018-Jan-12 09:00N 49°51' W 000°01'611.8
2018-Jan-12 08:30N 49°57' W 000°01'611.8
2018-Jan-12 08:00N 50°03' W 000°01'611.7
2018-Jan-12 07:30N 50°09' W 000°01'911.5
2018-Jan-12 06:42N 50°18' W 000°00'211.5
2018-Jan-12 06:30N 50°21' W 000°01'611.4
2018-Jan-12 06:00N 50°26' W 000°01'5 9.8
2018-Jan-12 05:30N 50°29' E 000°05'510.7
2018-Jan-12 05:00N 50°31' E 000°13'610.8
2018-Jan-12 04:28N 50°33' E 000°22'1511.3
2018-Jan-12 03:09N 50°39' E 000°43'212.2
2018-Jan-12 02:57N 50°41' E 000°45'612.7
2018-Jan-12 02:31N 50°45' E 000°52'1413.1
2018-Jan-12 01:28N 50°54' E 001°08'613.2
2018-Jan-12 01:00N 50°58' E 001°15'713.0
2018-Jan-12 00:30N 51°02' E 001°23'612.5
2018-Jan-12 00:00N 51°06' E 001°31'611.7
2018-Jan-11 23:30N 51°11' E 001°37'611.5
2018-Jan-11 23:00N 51°16' E 001°39'611.1
2018-Jan-11 22:30N 51°21' E 001°42'511.0
2018-Jan-11 22:00N 51°27' E 001°44'611.1
2018-Jan-11 21:30N 51°32' E 001°44'612.0
2018-Jan-11 21:00N 51°38' E 001°45'611.7
2018-Jan-11 20:30N 51°44' E 001°44'611.1
2018-Jan-11 20:00N 51°49' E 001°41'611.5
2018-Jan-11 19:30N 51°52' E 001°33'5 9.4
2018-Jan-11 19:01N 51°56' E 001°28'5 9.5
2018-Jan-11 18:31N 51°55' E 001°20'4 8.1
2018-Jan-11 18:01N 51°59' E 001°17'4 7.8
2018-Jan-11 17:30N 52°01' E 001°11'2 3.3
2018-Jan-11 17:00N 52°02' E 001°09'0 0.0
2018-Jan-11 16:30N 52°02' E 001°09'0 0.0
2018-Jan-11 16:00N 52°02' E 001°09'0 0.0
2018-Jan-11 15:30N 52°02' E 001°09'0 0.0
2018-Jan-11 15:00N 52°02' E 001°09'0 0.0
2018-Jan-11 14:30N 52°02' E 001°09'0 0.0
2018-Jan-11 14:00N 52°02' E 001°09'0 0.0
2018-Jan-11 13:30N 52°02' E 001°09'0 0.0
2018-Jan-11 13:00N 52°02' E 001°09'0 0.0
2018-Jan-11 12:30N 52°02' E 001°09'0 0.0
2018-Jan-11 12:00N 52°02' E 001°09'0 0.0
2018-Jan-11 11:30N 52°02' E 001°09'0 0.0
2018-Jan-11 11:00N 52°02' E 001°09'0 0.0
2018-Jan-11 10:30N 52°02' E 001°09'0 0.0
2018-Jan-11 10:00N 52°02' E 001°09'0 0.0
2018-Jan-11 09:30N 52°02' E 001°09'0 0.0
2018-Jan-11 09:00N 52°02' E 001°09'0 0.0
2018-Jan-11 08:30N 52°02' E 001°09'0 0.0
2018-Jan-11 08:00N 52°02' E 001°09'0 0.0
2018-Jan-11 07:30N 52°02' E 001°09'0 0.0
2018-Jan-11 07:00N 52°02' E 001°09'0 0.0
2018-Jan-11 06:30N 52°02' E 001°09'0 0.0
2018-Jan-11 06:00N 52°02' E 001°09'0 0.0
2018-Jan-11 05:30N 52°02' E 001°09'0 0.0
2018-Jan-11 05:00N 52°02' E 001°09'0 0.0
2018-Jan-11 04:30N 52°02' E 001°09'0 0.0
2018-Jan-11 04:00N 52°02' E 001°09'0 0.0
2018-Jan-11 03:30N 52°02' E 001°09'0 0.0
2018-Jan-11 03:00N 52°02' E 001°09'0 0.0
2018-Jan-11 02:30N 52°02' E 001°09'0 0.0
2018-Jan-11 02:00N 52°02' E 001°09'0 0.0
2018-Jan-11 01:30N 52°02' E 001°09'0 0.0
2018-Jan-11 01:00N 52°02' E 001°09'0 0.0
2018-Jan-11 00:30N 52°02' E 001°09'0 0.0
2018-Jan-11 00:00N 52°02' E 001°09'0 0.0
2018-Jan-10 23:30N 52°02' E 001°09'0 0.0
2018-Jan-10 23:00N 52°02' E 001°09'0 0.0
2018-Jan-10 22:30N 52°02' E 001°09'0 0.0
2018-Jan-10 22:00N 52°02' E 001°09'0 0.0
2018-Jan-10 21:30N 52°02' E 001°09'0 0.0
2018-Jan-10 21:00N 52°02' E 001°09'0 0.0
2018-Jan-10 20:30N 52°02' E 001°09'0 0.0
2018-Jan-10 20:00N 52°02' E 001°09'0 0.0
2018-Jan-10 19:30N 52°02' E 001°09'0 0.0
2018-Jan-10 19:00N 52°02' E 001°09'0 0.0
2018-Jan-10 18:30N 52°02' E 001°09'0 0.0
2018-Jan-10 18:00N 52°02' E 001°09'0 0.0
2018-Jan-10 17:30N 52°02' E 001°09'0 0.0
2018-Jan-10 17:00N 52°02' E 001°09'0 0.0
2018-Jan-10 16:30N 52°02' E 001°09'0 0.0
2018-Jan-10 16:00N 52°02' E 001°09'0 0.0
2018-Jan-10 15:30N 52°02' E 001°09'0 0.0
2018-Jan-10 15:00N 52°02' E 001°09'0 0.0
2018-Jan-10 14:30N 52°02' E 001°09'0 0.0
2018-Jan-10 14:00N 52°02' E 001°09'0 0.0
2018-Jan-10 13:30N 52°02' E 001°09'0 0.0
2018-Jan-10 13:00N 52°02' E 001°09'0 0.0
2018-Jan-10 12:30N 52°02' E 001°09'0 0.0
2018-Jan-10 12:00N 52°02' E 001°09'0 0.0
2018-Jan-10 11:30N 52°02' E 001°09'0 0.0
2018-Jan-10 11:00N 52°02' E 001°09'0 0.0
2018-Jan-10 10:30N 52°02' E 001°09'0 0.0
2018-Jan-10 10:00N 52°02' E 001°09'0 0.0
2018-Jan-10 09:30N 52°02' E 001°09'0 0.0
2018-Jan-10 09:00N 52°02' E 001°09'0 0.0
2018-Jan-10 08:30N 52°02' E 001°09'0 0.0
2018-Jan-10 08:00N 52°02' E 001°09'0 0.0
2018-Jan-10 07:30N 52°02' E 001°09'0 0.0
2018-Jan-10 07:00N 52°02' E 001°09'0 0.0
2018-Jan-10 06:30N 52°02' E 001°09'0 0.0
2018-Jan-10 06:00N 52°02' E 001°09'0 0.0
2018-Jan-10 05:30N 52°02' E 001°09'0 0.0
2018-Jan-10 05:00N 52°02' E 001°09'0 0.0
2018-Jan-10 04:30N 52°02' E 001°09'0 0.0
2018-Jan-10 04:00N 52°02' E 001°09'0 0.0
2018-Jan-10 03:30N 52°02' E 001°09'0 0.0
2018-Jan-10 03:00N 52°02' E 001°09'0 0.0
2018-Jan-10 02:30N 52°02' E 001°09'0 0.0
2018-Jan-10 02:00N 52°02' E 001°09'0 0.0
2018-Jan-10 01:30N 52°02' E 001°09'0 0.0
2018-Jan-10 01:00N 52°02' E 001°09'0 0.0
2018-Jan-10 00:30N 52°02' E 001°09'0 0.0
2018-Jan-10 00:00N 52°02' E 001°09'0 0.0
2018-Jan-09 23:30N 52°02' E 001°09'0 0.0
2018-Jan-09 23:00N 52°02' E 001°09'0 0.0
2018-Jan-09 22:30N 52°02' E 001°09'0 0.0
2018-Jan-09 22:00N 52°02' E 001°09'0 0.0
2018-Jan-09 21:30N 52°02' E 001°09'0 0.0
2018-Jan-09 21:00N 52°02' E 001°09'0 0.0
2018-Jan-09 20:30N 52°02' E 001°09'0 0.0
2018-Jan-09 20:00N 52°02' E 001°09'0 0.0
2018-Jan-09 19:30N 52°02' E 001°09'0 0.0
2018-Jan-09 19:00N 52°02' E 001°09'0 0.0
2018-Jan-09 18:30N 52°02' E 001°09'0 0.0
2018-Jan-09 18:00N 52°02' E 001°09'0 0.0
2018-Jan-09 17:30N 52°02' E 001°09'0 0.0
2018-Jan-09 17:01N 52°02' E 001°09'0 0.3
2018-Jan-09 16:30N 52°02' E 001°09'0 0.8
2018-Jan-09 16:00N 52°02' E 001°10'3 5.9
2018-Jan-09 15:31N 51°60' E 001°13'3 6.6
2018-Jan-09 15:00N 51°58' E 001°17'4 7.3
2018-Jan-09 14:31N 51°56' E 001°22'611.6
2018-Jan-09 14:00N 51°57' E 001°31'1 2.8
2018-Jan-09 13:29N 51°58' E 001°33'0 0.0
2018-Jan-09 12:59N 51°58' E 001°33'0 0.0
2018-Jan-09 12:29N 51°58' E 001°33'0 0.0
2018-Jan-09 11:59N 51°58' E 001°33'0 0.0
2018-Jan-09 11:29N 51°58' E 001°33'0 0.2
2018-Jan-09 10:59N 51°58' E 001°33'0 0.1
2018-Jan-09 10:29N 51°58' E 001°33'0 0.0
2018-Jan-09 09:59N 51°58' E 001°33'0 0.0
2018-Jan-09 09:29N 51°58' E 001°33'0 0.0
2018-Jan-09 08:59N 51°58' E 001°33'0 0.0
2018-Jan-09 08:29N 51°58' E 001°33'0 0.0
2018-Jan-09 07:59N 51°58' E 001°33'0 0.0
2018-Jan-09 07:29N 51°58' E 001°33'0 0.0
2018-Jan-09 06:59N 51°58' E 001°33'0 0.0
2018-Jan-09 06:29N 51°58' E 001°33'0 0.3
2018-Jan-09 06:00N 51°58' E 001°33'4 7.2
2018-Jan-09 05:31N 51°55' E 001°34'4 7.4
2018-Jan-09 05:00N 51°52' E 001°38'4 8.2
2018-Jan-09 04:31N 51°51' E 001°44'4 7.1
2018-Jan-09 04:00N 51°48' E 001°48'4 8.2
2018-Jan-09 03:30N 51°44' E 001°48'5 8.4
2018-Jan-09 02:58N 51°39' E 001°49'4 9.7
2018-Jan-09 02:30N 51°35' E 001°49'5 9.6
2018-Jan-09 02:00N 51°30' E 001°48'5 9.4
2018-Jan-09 01:30N 51°26' E 001°45'  
Track history (hours):
 
Tides and Currents Weather Stations Pressure Air Temp Water Temp Dewpoint Dewpoint Depression Visibility Wind Speed Wind Dir Waves Ship Positions

Arklow Fame

Last reported at 2018-Jan-19 01:28 UTC. Time now 2018-Jan-19 06:04 UTC.
Position N 51°13' W 004°22'.

Length 90 m; draft 4 m.

Type: Cargo ship. MMSI: 250000817.

Date/timePositionNaut miles runAvg speedWind from/ knotsBaromVisibWave heightAir tempDewpointWater temp
2018-Jan-19 01:28N 51°13' W 004°22'510.6
2018-Jan-19 01:00N 51°10' W 004°28'510.4
2018-Jan-19 00:30N 51°06' W 004°34'5 9.7
2018-Jan-19 00:00N 51°03' W 004°40'510.0
2018-Jan-18 23:31N 51°00' W 004°46'510.0
2018-Jan-18 23:01N 50°57' W 004°53'4 8.9
2018-Jan-18 22:31N 50°54' W 004°58'5 9.0
2018-Jan-18 22:01N 50°51' W 005°03'5 9.2
2018-Jan-18 21:31N 50°47' W 005°07'5 9.3
2018-Jan-18 21:00N 50°44' W 005°13'5 9.4
2018-Jan-18 20:31N 50°41' W 005°19'5 9.7
2018-Jan-18 20:00N 50°38' W 005°24'5 9.9
2018-Jan-18 19:29N 50°34' W 005°30'510.8
2018-Jan-18 19:00N 50°30' W 005°36'712.7
2018-Jan-18 18:28N 50°26' W 005°43'58 6.2
2018-Jan-18 09:09N 49°54' W 004°28'5 7.8
2018-Jan-18 08:32N 49°55' W 004°21'1 7.3
2018-Jan-18 08:27N 49°55' W 004°20'4 6.5
2018-Jan-18 07:51N 49°56' W 004°15'13 3.4
2018-Jan-18 04:08N 49°58' W 003°55'1 3.2
2018-Jan-18 03:54N 49°58' W 003°55'2 3.4
2018-Jan-18 03:24N 50°00' W 003°54'1 2.4
2018-Jan-18 02:55N 50°01' W 003°53'2 4.1
2018-Jan-18 02:30N 50°00' W 003°50'4 5.3
2018-Jan-18 01:49N 49°59' W 003°45'2 5.3
2018-Jan-18 01:31N 49°58' W 003°43'6 5.4
2018-Jan-18 00:28N 49°55' W 003°35'2 4.3
2018-Jan-18 00:00N 49°55' W 003°32'0 3.5
2018-Jan-17 23:57N 49°55' W 003°32'  
2018-Jan-12 14:57N 49°34' W 000°08'0 0.2
2018-Jan-12 14:30N 49°34' W 000°09'0 0.0
2018-Jan-12 14:00N 49°34' W 000°09'0 0.0
2018-Jan-12 13:30N 49°34' W 000°09'0 0.0
2018-Jan-12 13:00N 49°34' W 000°09'0 0.0
2018-Jan-12 12:27N 49°34' W 000°09'0 0.0
2018-Jan-12 12:00N 49°34' W 000°09'0 0.0
2018-Jan-12 11:30N 49°34' W 000°09'0 0.0
2018-Jan-12 11:00N 49°34' W 000°09'1 1.7
2018-Jan-12 10:31N 49°35' W 000°08'611.1
2018-Jan-12 10:00N 49°40' W 000°04'611.9
2018-Jan-12 09:31N 49°46' W 000°00'611.7
2018-Jan-12 09:00N 49°51' W 000°01'611.8
2018-Jan-12 08:30N 49°57' W 000°01'611.8
2018-Jan-12 08:00N 50°03' W 000°01'611.7
2018-Jan-12 07:30N 50°09' W 000°01'911.5
2018-Jan-12 06:42N 50°18' W 000°00'211.5
2018-Jan-12 06:30N 50°21' W 000°01'611.4
2018-Jan-12 06:00N 50°26' W 000°01'5 9.8
2018-Jan-12 05:30N 50°29' E 000°05'510.7
2018-Jan-12 05:00N 50°31' E 000°13'610.8
2018-Jan-12 04:28N 50°33' E 000°22'1511.3
2018-Jan-12 03:09N 50°39' E 000°43'212.2
2018-Jan-12 02:57N 50°41' E 000°45'612.7
2018-Jan-12 02:31N 50°45' E 000°52'1413.1
2018-Jan-12 01:28N 50°54' E 001°08'613.2
2018-Jan-12 01:00N 50°58' E 001°15'713.0
2018-Jan-12 00:30N 51°02' E 001°23'612.5
2018-Jan-12 00:00N 51°06' E 001°31'611.7
2018-Jan-11 23:30N 51°11' E 001°37'611.5
2018-Jan-11 23:00N 51°16' E 001°39'611.1
2018-Jan-11 22:30N 51°21' E 001°42'511.0
2018-Jan-11 22:00N 51°27' E 001°44'611.1
2018-Jan-11 21:30N 51°32' E 001°44'612.0
2018-Jan-11 21:00N 51°38' E 001°45'611.7
2018-Jan-11 20:30N 51°44' E 001°44'611.1
2018-Jan-11 20:00N 51°49' E 001°41'611.5
2018-Jan-11 19:30N 51°52' E 001°33'5 9.4
2018-Jan-11 19:01N 51°56' E 001°28'5 9.5
2018-Jan-11 18:31N 51°55' E 001°20'4 8.1
2018-Jan-11 18:01N 51°59' E 001°17'4 7.8
2018-Jan-11 17:30N 52°01' E 001°11'2 3.3
2018-Jan-11 17:00N 52°02' E 001°09'0 0.0
2018-Jan-11 16:30N 52°02' E 001°09'0 0.0
2018-Jan-11 16:00N 52°02' E 001°09'0 0.0
2018-Jan-11 15:30N 52°02' E 001°09'0 0.0
2018-Jan-11 15:00N 52°02' E 001°09'0 0.0
2018-Jan-11 14:30N 52°02' E 001°09'0 0.0
2018-Jan-11 14:00N 52°02' E 001°09'0 0.0
2018-Jan-11 13:30N 52°02' E 001°09'0 0.0
2018-Jan-11 13:00N 52°02' E 001°09'0 0.0
2018-Jan-11 12:30N 52°02' E 001°09'0 0.0
2018-Jan-11 12:00N 52°02' E 001°09'0 0.0
2018-Jan-11 11:30N 52°02' E 001°09'0 0.0
2018-Jan-11 11:00N 52°02' E 001°09'0 0.0
2018-Jan-11 10:30N 52°02' E 001°09'0 0.0
2018-Jan-11 10:00N 52°02' E 001°09'0 0.0
2018-Jan-11 09:30N 52°02' E 001°09'0 0.0
2018-Jan-11 09:00N 52°02' E 001°09'0 0.0
2018-Jan-11 08:30N 52°02' E 001°09'0 0.0
2018-Jan-11 08:00N 52°02' E 001°09'0 0.0
2018-Jan-11 07:30N 52°02' E 001°09'0 0.0
2018-Jan-11 07:00N 52°02' E 001°09'0 0.0
2018-Jan-11 06:30N 52°02' E 001°09'0 0.0
2018-Jan-11 06:00N 52°02' E 001°09'0 0.0
2018-Jan-11 05:30N 52°02' E 001°09'0 0.0
2018-Jan-11 05:00N 52°02' E 001°09'0 0.0
2018-Jan-11 04:30N 52°02' E 001°09'0 0.0
2018-Jan-11 04:00N 52°02' E 001°09'0 0.0
2018-Jan-11 03:30N 52°02' E 001°09'0 0.0
2018-Jan-11 03:00N 52°02' E 001°09'0 0.0
2018-Jan-11 02:30N 52°02' E 001°09'0 0.0
2018-Jan-11 02:00N 52°02' E 001°09'0 0.0
2018-Jan-11 01:30N 52°02' E 001°09'0 0.0
2018-Jan-11 01:00N 52°02' E 001°09'0 0.0
2018-Jan-11 00:30N 52°02' E 001°09'0 0.0
2018-Jan-11 00:00N 52°02' E 001°09'0 0.0
2018-Jan-10 23:30N 52°02' E 001°09'0 0.0
2018-Jan-10 23:00N 52°02' E 001°09'0 0.0
2018-Jan-10 22:30N 52°02' E 001°09'0 0.0
2018-Jan-10 22:00N 52°02' E 001°09'0 0.0
2018-Jan-10 21:30N 52°02' E 001°09'0 0.0
2018-Jan-10 21:00N 52°02' E 001°09'0 0.0
2018-Jan-10 20:30N 52°02' E 001°09'0 0.0
2018-Jan-10 20:00N 52°02' E 001°09'0 0.0
2018-Jan-10 19:30N 52°02' E 001°09'0 0.0
2018-Jan-10 19:00N 52°02' E 001°09'0 0.0
2018-Jan-10 18:30N 52°02' E 001°09'0 0.0
2018-Jan-10 18:00N 52°02' E 001°09'0 0.0
2018-Jan-10 17:30N 52°02' E 001°09'0 0.0
2018-Jan-10 17:00N 52°02' E 001°09'0 0.0
2018-Jan-10 16:30N 52°02' E 001°09'0 0.0
2018-Jan-10 16:00N 52°02' E 001°09'0 0.0
2018-Jan-10 15:30N 52°02' E 001°09'0 0.0
2018-Jan-10 15:00N 52°02' E 001°09'0 0.0
2018-Jan-10 14:30N 52°02' E 001°09'0 0.0
2018-Jan-10 14:00N 52°02' E 001°09'0 0.0
2018-Jan-10 13:30N 52°02' E 001°09'0 0.0
2018-Jan-10 13:00N 52°02' E 001°09'0 0.0
2018-Jan-10 12:30N 52°02' E 001°09'0 0.0
2018-Jan-10 12:00N 52°02' E 001°09'0 0.0
2018-Jan-10 11:30N 52°02' E 001°09'0 0.0
2018-Jan-10 11:00N 52°02' E 001°09'0 0.0
2018-Jan-10 10:30N 52°02' E 001°09'0 0.0
2018-Jan-10 10:00N 52°02' E 001°09'0 0.0
2018-Jan-10 09:30N 52°02' E 001°09'0 0.0
2018-Jan-10 09:00N 52°02' E 001°09'0 0.0
2018-Jan-10 08:30N 52°02' E 001°09'0 0.0
2018-Jan-10 08:00N 52°02' E 001°09'0 0.0
2018-Jan-10 07:30N 52°02' E 001°09'0 0.0
2018-Jan-10 07:00N 52°02' E 001°09'0 0.0
2018-Jan-10 06:30N 52°02' E 001°09'0 0.0
2018-Jan-10 06:00N 52°02' E 001°09'0 0.0
2018-Jan-10 05:30N 52°02' E 001°09'0 0.0
2018-Jan-10 05:00N 52°02' E 001°09'0 0.0
2018-Jan-10 04:30N 52°02' E 001°09'0 0.0
2018-Jan-10 04:00N 52°02' E 001°09'0 0.0
2018-Jan-10 03:30N 52°02' E 001°09'0 0.0
2018-Jan-10 03:00N 52°02' E 001°09'0 0.0
2018-Jan-10 02:30N 52°02' E 001°09'0 0.0
2018-Jan-10 02:00N 52°02' E 001°09'0 0.0
2018-Jan-10 01:30N 52°02' E 001°09'0 0.0
2018-Jan-10 01:00N 52°02' E 001°09'0 0.0
2018-Jan-10 00:30N 52°02' E 001°09'0 0.0
2018-Jan-10 00:00N 52°02' E 001°09'0 0.0
2018-Jan-09 23:30N 52°02' E 001°09'0 0.0
2018-Jan-09 23:00N 52°02' E 001°09'0 0.0
2018-Jan-09 22:30N 52°02' E 001°09'0 0.0
2018-Jan-09 22:00N 52°02' E 001°09'0 0.0
2018-Jan-09 21:30N 52°02' E 001°09'0 0.0
2018-Jan-09 21:00N 52°02' E 001°09'0 0.0
2018-Jan-09 20:30N 52°02' E 001°09'0 0.0
2018-Jan-09 20:00N 52°02' E 001°09'0 0.0
2018-Jan-09 19:30N 52°02' E 001°09'0 0.0
2018-Jan-09 19:00N 52°02' E 001°09'0 0.0
2018-Jan-09 18:30N 52°02' E 001°09'0 0.0
2018-Jan-09 18:00N 52°02' E 001°09'0 0.0
2018-Jan-09 17:30N 52°02' E 001°09'0 0.0
2018-Jan-09 17:01N 52°02' E 001°09'0 0.3
2018-Jan-09 16:30N 52°02' E 001°09'0 0.8
2018-Jan-09 16:00N 52°02' E 001°10'3 5.9
2018-Jan-09 15:31N 51°60' E 001°13'3 6.6
2018-Jan-09 15:00N 51°58' E 001°17'4 7.3
2018-Jan-09 14:31N 51°56' E 001°22'611.6
2018-Jan-09 14:00N 51°57' E 001°31'1 2.8
2018-Jan-09 13:29N 51°58' E 001°33'0 0.0
2018-Jan-09 12:59N 51°58' E 001°33'0 0.0
2018-Jan-09 12:29N 51°58' E 001°33'0 0.0
2018-Jan-09 11:59N 51°58' E 001°33'0 0.0
2018-Jan-09 11:29N 51°58' E 001°33'0 0.2
2018-Jan-09 10:59N 51°58' E 001°33'0 0.1
2018-Jan-09 10:29N 51°58' E 001°33'0 0.0
2018-Jan-09 09:59N 51°58' E 001°33'0 0.0
2018-Jan-09 09:29N 51°58' E 001°33'0 0.0
2018-Jan-09 08:59N 51°58' E 001°33'0 0.0
2018-Jan-09 08:29N 51°58' E 001°33'0 0.0
2018-Jan-09 07:59N 51°58' E 001°33'0 0.0
2018-Jan-09 07:29N 51°58' E 001°33'0 0.0
2018-Jan-09 06:59N 51°58' E 001°33'0 0.0
2018-Jan-09 06:29N 51°58' E 001°33'0 0.3
2018-Jan-09 06:00N 51°58' E 001°33'4 7.2
2018-Jan-09 05:31N 51°55' E 001°34'4 7.4
2018-Jan-09 05:00N 51°52' E 001°38'4 8.2
2018-Jan-09 04:31N 51°51' E 001°44'4 7.1
2018-Jan-09 04:00N 51°48' E 001°48'4 8.2
2018-Jan-09 03:30N 51°44' E 001°48'5 8.4
2018-Jan-09 02:58N 51°39' E 001°49'4 9.7
2018-Jan-09 02:30N 51°35' E 001°49'5 9.6
2018-Jan-09 02:00N 51°30' E 001°48'5 9.4
2018-Jan-09 01:30N 51°26' E 001°45'  

Dump ship's entire track history